Aérodrome :
LOGIN :

S'inscrire | Disclaimer

   EN    FR    IT 

 










Légende :    VFR   VFR Marginal   IFR   IFR Intensif   IFR Très Intensif
Visi : 
Plafond : 
>= 8 km
>= 3000ft
5 à 8 km
1000 à 3000 ft
1500m à 5 km
500 à 1000 ft
800 à 1500m
200 à 500 ft
< 800m
< 200 ft
Symboles :   Orages  Brouillard  Fortes neiges  Fortes précipitations  Vent > 20 kt
SIGMETs :   Divers  Orages  Givrage  Turbulence  Onde Orograph.  Cendres Volcan.






- Altitude de l'aérodrome : 505 ft
- Code IATA : SXB


LFST - Strasbourg

DERNIER METAR :
  • 201630Z AUTO 36005KT 5000 BR OVC004 03/02 Q1014 NOSIG

METARs EXPIRÉS :
  • 201600Z AUTO 01004KT 340V040 5000 BR OVC004 03/03 Q1014 TEMPO BKN010
  • 201530Z AUTO 34005KT 3800 BR OVC004 03/02 Q1014 TEMPO 7000 NSW BKN010
  • 201500Z AUTO 33004KT 3700 BR OVC003 03/02 Q1014 TEMPO 7000 NSW BKN010
  • 201430Z AUTO 32005KT 3900 BR OVC004 03/02 Q1014 TEMPO 7000 NSW BKN010
  • 201400Z AUTO 33005KT 4700 BR OVC004 02/02 Q1014 TEMPO 7000 NSW BKN010

TAF TAF LFST
Valide du 20 à 12h jusqu'au 21 à 12h UTC


201100Z 2012/2112 06006KT 3000 BR OVC002
PROB40
TEMPO 2012/2017 7000 NSW BKN010
BECMG 2017/2019 4000 BR OVC003
PROB40 2021/2110 0300 FG VV///



MET'MAP, la Météo Aéronautique d'un coup d'oeil ! - Copyright ORBIFLY Décembre 2007 - Disclaimer

ORBIFLY MET'MAP TEAM :

Programmation & Développement : Alexandra Zaïnal
Conception & Développement : Baudouin d'Aumeries
Co-Programmation & Développement : Marc-Olivier Méhu
Soutien technique & logistique : Manuel Goepfert

Contact : metmap@orbifly.com




SOURCES & CREDITS :

   NOAA